Frances Anne — WDE8555 — position and weather

sailwx.info

Track history (hours):
 
Tides and Currents Weather Stations Pressure Air Temp Water Temp Dewpoint Dewpoint Depression Visibility Wind Speed Wind Dir Waves Ship Positions

Frances Anne

Owner: Frances Anne Inc., West Creek, NJ. More information available from US FCC via Universal Licensing System and Coast Guard Vessel Documentation Center.

Last reported at 2015-Mar-17 12:21 UTC. Time now 2015-Mar-26 23:51 UTC.
Position N 39°46' W 074°07'.
Warning: this ship's position is 9 days out of date.

Type: Fishing. MMSI: 367406910.

Date/timePositionNaut miles runAvg speedWind from/ knotsBaromVisibWave heightAir tempDewpointWater temp
2015-Mar-17 12:21N 39°46' W 074°07'0 0.1
2015-Mar-17 11:29N 39°46' W 074°07'0 0.0
2015-Mar-17 10:32N 39°46' W 074°07'0 0.0
2015-Mar-17 09:32N 39°46' W 074°07'0 0.0
2015-Mar-17 08:26N 39°46' W 074°07'0 0.0
2015-Mar-17 07:32N 39°46' W 074°07'0 0.0
2015-Mar-17 06:26N 39°46' W 074°07'0 0.0
2015-Mar-17 05:32N 39°46' W 074°07'0 0.0
2015-Mar-17 04:32N 39°46' W 074°07'0 0.0
2015-Mar-17 03:17N 39°46' W 074°07'0 0.0
2015-Mar-17 02:23N 39°46' W 074°07'0 0.0
2015-Mar-17 01:32N 39°46' W 074°07'0 0.0
2015-Mar-17 00:23N 39°46' W 074°06'0 0.0
2015-Mar-16 23:29N 39°46' W 074°07'0 0.0
2015-Mar-16 22:29N 39°46' W 074°07'0 0.0
2015-Mar-16 21:32N 39°46' W 074°07'0 0.0
2015-Mar-16 20:32N 39°46' W 074°07'0 0.0
2015-Mar-16 19:32N 39°46' W 074°07'0 0.0
2015-Mar-16 18:32N 39°46' W 074°07'0 0.0
2015-Mar-16 17:32N 39°46' W 074°07'0 0.0
2015-Mar-16 16:32N 39°46' W 074°07'0 0.0
2015-Mar-16 15:32N 39°46' W 074°07'0 0.0
2015-Mar-16 14:24N 39°46' W 074°07'0 0.0
2015-Mar-16 12:32N 39°46' W 074°07'0 0.0
2015-Mar-16 11:26N 39°46' W 074°07'0 0.0
2015-Mar-16 10:32N 39°46' W 074°07'0 0.0
2015-Mar-16 09:29N 39°46' W 074°07'0 0.0
2015-Mar-16 08:29N 39°46' W 074°07'0 0.0
2015-Mar-16 07:29N 39°46' W 074°07'0 0.0
2015-Mar-16 06:32N 39°46' W 074°07'0 0.0
2015-Mar-16 05:29N 39°46' W 074°07'0 0.0
2015-Mar-16 04:32N 39°46' W 074°07'0 0.0
2015-Mar-16 03:29N 39°46' W 074°07'0 0.0
2015-Mar-16 02:17N 39°46' W 074°07'0 0.0
2015-Mar-16 01:32N 39°46' W 074°07'0 0.0
2015-Mar-16 00:23N 39°46' W 074°07'0 0.0
2015-Mar-15 23:29N 39°46' W 074°07'0 0.0
2015-Mar-15 22:32N 39°46' W 074°07'0 0.0
2015-Mar-15 21:29N 39°46' W 074°07'0 0.0
2015-Mar-15 20:29N 39°46' W 074°07'0 0.0
2015-Mar-15 19:29N 39°46' W 074°07'0 0.0
2015-Mar-15 18:32N 39°46' W 074°07'0 0.0
2015-Mar-15 17:29N 39°46' W 074°07'0 0.0
2015-Mar-15 16:20N 39°46' W 074°07'0 0.0
2015-Mar-15 15:32N 39°46' W 074°07'0 0.1
2015-Mar-15 14:24N 39°46' W 074°07'0 0.0
2015-Mar-15 13:24N 39°46' W 074°07'0 0.0
2015-Mar-15 12:30N 39°46' W 074°07'0 0.0
2015-Mar-15 11:30N 39°46' W 074°07'0 0.0
2015-Mar-15 10:30N 39°46' W 074°07'0 0.0
2015-Mar-15 09:33N 39°46' W 074°07'0 0.0
2015-Mar-15 08:33N 39°46' W 074°07'0 0.0
2015-Mar-15 07:33N 39°46' W 074°07'0 0.0
2015-Mar-15 06:33N 39°46' W 074°07'0 0.0
2015-Mar-15 05:27N 39°46' W 074°07'0 0.0
2015-Mar-15 04:33N 39°46' W 074°07'0 0.0
2015-Mar-15 03:33N 39°46' W 074°07'0 0.0
2015-Mar-15 02:33N 39°46' W 074°07'0 0.0
2015-Mar-15 01:27N 39°46' W 074°07'0 0.0
2015-Mar-15 00:33N 39°46' W 074°07'0 0.0
2015-Mar-14 23:33N 39°46' W 074°07'0 0.0
2015-Mar-14 22:33N 39°46' W 074°07'0 0.0
2015-Mar-14 21:33N 39°46' W 074°07'0 0.0
2015-Mar-14 20:33N 39°46' W 074°07'0 0.0
2015-Mar-14 19:33N 39°46' W 074°07'0 0.0
2015-Mar-14 18:21N 39°46' W 074°07'0 0.0
2015-Mar-14 17:33N 39°46' W 074°07'0 0.0
2015-Mar-14 16:32N 39°46' W 074°07'7 6.7
2015-Mar-14 15:33N 39°39' W 074°07'9 8.5
2015-Mar-14 14:32N 39°31' W 074°09'  
2015-Mar-08 18:28N 39°35' W 074°08'7 8.0
2015-Mar-08 17:33N 39°42' W 074°06'4 3.5
2015-Mar-08 16:29N 39°46' W 074°07'0 0.0
2015-Mar-08 15:23N 39°46' W 074°07'0 0.0
2015-Mar-08 14:17N 39°46' W 074°07'0 0.0
2015-Mar-08 13:23N 39°46' W 074°07'0 0.0
2015-Mar-08 12:17N 39°46' W 074°07'0 0.0
2015-Mar-08 11:29N 39°46' W 074°07'0 0.0
2015-Mar-08 10:29N 39°46' W 074°07'0 0.0
2015-Mar-08 09:17N 39°46' W 074°07'0 0.0
2015-Mar-08 08:29N 39°46' W 074°07'0 0.0
2015-Mar-08 07:32N 39°46' W 074°07'0 0.0
2015-Mar-08 06:26N 39°46' W 074°07'0 0.0
2015-Mar-08 05:29N 39°46' W 074°07'0 0.0
2015-Mar-08 04:23N 39°46' W 074°07'0 0.0
2015-Mar-08 03:23N 39°46' W 074°07'0 0.0
2015-Mar-08 02:23N 39°46' W 074°07'0 0.0
2015-Mar-08 01:32N 39°46' W 074°07'0 0.0
2015-Mar-08 00:32N 39°46' W 074°07'0 0.0
2015-Mar-07 23:29N 39°46' W 074°07'0 0.0
2015-Mar-07 22:26N 39°46' W 074°07'0 0.0
2015-Mar-07 21:32N 39°46' W 074°07'0 0.0
2015-Mar-07 20:32N 39°46' W 074°07'0 0.0
2015-Mar-07 19:32N 39°46' W 074°07'0 0.0
2015-Mar-07 18:32N 39°46' W 074°07'0 0.0
2015-Mar-07 17:26N 39°46' W 074°07'0 0.0
2015-Mar-07 16:32N 39°46' W 074°07'0 0.0
2015-Mar-07 15:32N 39°46' W 074°07'0 0.0
2015-Mar-07 14:32N 39°46' W 074°07'0 0.1
2015-Mar-07 13:30N 39°46' W 074°07'  
Track history (hours):
 
Tides and Currents Weather Stations Pressure Air Temp Water Temp Dewpoint Dewpoint Depression Visibility Wind Speed Wind Dir Waves Ship Positions

Frances Anne

Owner: Frances Anne Inc., West Creek, NJ. More information available from US FCC via Universal Licensing System and Coast Guard Vessel Documentation Center.

Last reported at 2015-Mar-17 12:21 UTC. Time now 2015-Mar-26 23:51 UTC.
Position N 39°46' W 074°07'.
Warning: this ship's position is 9 days out of date.

Type: Fishing. MMSI: 367406910.

Date/timePositionNaut miles runAvg speedWind from/ knotsBaromVisibWave heightAir tempDewpointWater temp
2015-Mar-17 12:21N 39°46' W 074°07'0 0.1
2015-Mar-17 11:29N 39°46' W 074°07'0 0.0
2015-Mar-17 10:32N 39°46' W 074°07'0 0.0
2015-Mar-17 09:32N 39°46' W 074°07'0 0.0
2015-Mar-17 08:26N 39°46' W 074°07'0 0.0
2015-Mar-17 07:32N 39°46' W 074°07'0 0.0
2015-Mar-17 06:26N 39°46' W 074°07'0 0.0
2015-Mar-17 05:32N 39°46' W 074°07'0 0.0
2015-Mar-17 04:32N 39°46' W 074°07'0 0.0
2015-Mar-17 03:17N 39°46' W 074°07'0 0.0
2015-Mar-17 02:23N 39°46' W 074°07'0 0.0
2015-Mar-17 01:32N 39°46' W 074°07'0 0.0
2015-Mar-17 00:23N 39°46' W 074°06'0 0.0
2015-Mar-16 23:29N 39°46' W 074°07'0 0.0
2015-Mar-16 22:29N 39°46' W 074°07'0 0.0
2015-Mar-16 21:32N 39°46' W 074°07'0 0.0
2015-Mar-16 20:32N 39°46' W 074°07'0 0.0
2015-Mar-16 19:32N 39°46' W 074°07'0 0.0
2015-Mar-16 18:32N 39°46' W 074°07'0 0.0
2015-Mar-16 17:32N 39°46' W 074°07'0 0.0
2015-Mar-16 16:32N 39°46' W 074°07'0 0.0
2015-Mar-16 15:32N 39°46' W 074°07'0 0.0
2015-Mar-16 14:24N 39°46' W 074°07'0 0.0
2015-Mar-16 12:32N 39°46' W 074°07'0 0.0
2015-Mar-16 11:26N 39°46' W 074°07'0 0.0
2015-Mar-16 10:32N 39°46' W 074°07'0 0.0
2015-Mar-16 09:29N 39°46' W 074°07'0 0.0
2015-Mar-16 08:29N 39°46' W 074°07'0 0.0
2015-Mar-16 07:29N 39°46' W 074°07'0 0.0
2015-Mar-16 06:32N 39°46' W 074°07'0 0.0
2015-Mar-16 05:29N 39°46' W 074°07'0 0.0
2015-Mar-16 04:32N 39°46' W 074°07'0 0.0
2015-Mar-16 03:29N 39°46' W 074°07'0 0.0
2015-Mar-16 02:17N 39°46' W 074°07'0 0.0
2015-Mar-16 01:32N 39°46' W 074°07'0 0.0
2015-Mar-16 00:23N 39°46' W 074°07'0 0.0
2015-Mar-15 23:29N 39°46' W 074°07'0 0.0
2015-Mar-15 22:32N 39°46' W 074°07'0 0.0
2015-Mar-15 21:29N 39°46' W 074°07'0 0.0
2015-Mar-15 20:29N 39°46' W 074°07'0 0.0
2015-Mar-15 19:29N 39°46' W 074°07'0 0.0
2015-Mar-15 18:32N 39°46' W 074°07'0 0.0
2015-Mar-15 17:29N 39°46' W 074°07'0 0.0
2015-Mar-15 16:20N 39°46' W 074°07'0 0.0
2015-Mar-15 15:32N 39°46' W 074°07'0 0.1
2015-Mar-15 14:24N 39°46' W 074°07'0 0.0
2015-Mar-15 13:24N 39°46' W 074°07'0 0.0
2015-Mar-15 12:30N 39°46' W 074°07'0 0.0
2015-Mar-15 11:30N 39°46' W 074°07'0 0.0
2015-Mar-15 10:30N 39°46' W 074°07'0 0.0
2015-Mar-15 09:33N 39°46' W 074°07'0 0.0
2015-Mar-15 08:33N 39°46' W 074°07'0 0.0
2015-Mar-15 07:33N 39°46' W 074°07'0 0.0
2015-Mar-15 06:33N 39°46' W 074°07'0 0.0
2015-Mar-15 05:27N 39°46' W 074°07'0 0.0
2015-Mar-15 04:33N 39°46' W 074°07'0 0.0
2015-Mar-15 03:33N 39°46' W 074°07'0 0.0
2015-Mar-15 02:33N 39°46' W 074°07'0 0.0
2015-Mar-15 01:27N 39°46' W 074°07'0 0.0
2015-Mar-15 00:33N 39°46' W 074°07'0 0.0
2015-Mar-14 23:33N 39°46' W 074°07'0 0.0
2015-Mar-14 22:33N 39°46' W 074°07'0 0.0
2015-Mar-14 21:33N 39°46' W 074°07'0 0.0
2015-Mar-14 20:33N 39°46' W 074°07'0 0.0
2015-Mar-14 19:33N 39°46' W 074°07'0 0.0
2015-Mar-14 18:21N 39°46' W 074°07'0 0.0
2015-Mar-14 17:33N 39°46' W 074°07'0 0.0
2015-Mar-14 16:32N 39°46' W 074°07'7 6.7
2015-Mar-14 15:33N 39°39' W 074°07'9 8.5
2015-Mar-14 14:32N 39°31' W 074°09'  
2015-Mar-08 18:28N 39°35' W 074°08'7 8.0
2015-Mar-08 17:33N 39°42' W 074°06'4 3.5
2015-Mar-08 16:29N 39°46' W 074°07'0 0.0
2015-Mar-08 15:23N 39°46' W 074°07'0 0.0
2015-Mar-08 14:17N 39°46' W 074°07'0 0.0
2015-Mar-08 13:23N 39°46' W 074°07'0 0.0
2015-Mar-08 12:17N 39°46' W 074°07'0 0.0
2015-Mar-08 11:29N 39°46' W 074°07'0 0.0
2015-Mar-08 10:29N 39°46' W 074°07'0 0.0
2015-Mar-08 09:17N 39°46' W 074°07'0 0.0
2015-Mar-08 08:29N 39°46' W 074°07'0 0.0
2015-Mar-08 07:32N 39°46' W 074°07'0 0.0
2015-Mar-08 06:26N 39°46' W 074°07'0 0.0
2015-Mar-08 05:29N 39°46' W 074°07'0 0.0
2015-Mar-08 04:23N 39°46' W 074°07'0 0.0
2015-Mar-08 03:23N 39°46' W 074°07'0 0.0
2015-Mar-08 02:23N 39°46' W 074°07'0 0.0
2015-Mar-08 01:32N 39°46' W 074°07'0 0.0
2015-Mar-08 00:32N 39°46' W 074°07'0 0.0
2015-Mar-07 23:29N 39°46' W 074°07'0 0.0
2015-Mar-07 22:26N 39°46' W 074°07'0 0.0
2015-Mar-07 21:32N 39°46' W 074°07'0 0.0
2015-Mar-07 20:32N 39°46' W 074°07'0 0.0
2015-Mar-07 19:32N 39°46' W 074°07'0 0.0
2015-Mar-07 18:32N 39°46' W 074°07'0 0.0
2015-Mar-07 17:26N 39°46' W 074°07'0 0.0
2015-Mar-07 16:32N 39°46' W 074°07'0 0.0
2015-Mar-07 15:32N 39°46' W 074°07'0 0.0
2015-Mar-07 14:32N 39°46' W 074°07'0 0.1
2015-Mar-07 13:30N 39°46' W 074°07'  

Dump ship's entire track history